createdAt,value
2022-09-23T00:01:05.431Z,53.20
2022-09-23T00:03:33.316Z,53.20
2022-09-23T00:06:05.371Z,53.20
2022-09-23T00:08:32.484Z,53.10
2022-09-23T00:11:09.193Z,53.10
2022-09-23T00:13:37.058Z,53.00
2022-09-23T00:16:05.331Z,53.10
2022-09-23T00:18:32.635Z,52.90
2022-09-23T00:21:03.939Z,53.10
2022-09-23T00:23:30.795Z,53.00
2022-09-23T00:25:59.156Z,53.00
2022-09-23T00:28:25.830Z,53.00
2022-09-23T00:30:52.836Z,53.00
2022-09-23T00:33:19.672Z,52.90
2022-09-23T00:35:47.326Z,52.90
2022-09-23T00:38:14.351Z,52.80
2022-09-23T00:40:46.057Z,52.90
2022-09-23T00:43:17.510Z,52.40
2022-09-23T00:45:48.595Z,52.30
2022-09-23T00:48:18.946Z,52.40
2022-09-23T00:50:51.026Z,52.30
2022-09-23T00:53:22.536Z,52.20
2022-09-23T00:55:57.245Z,52.30
2022-09-23T00:58:27.951Z,52.20
2022-09-23T01:00:55.431Z,52.20
2022-09-23T01:03:22.996Z,52.20
2022-09-23T01:05:50.628Z,52.20
2022-09-23T01:08:18.194Z,52.20
2022-09-23T01:11:02.526Z,52.10
2022-09-23T01:13:43.400Z,52.10
2022-09-23T01:16:13.177Z,52.20
2022-09-23T01:19:05.410Z,52.10
2022-09-23T01:21:57.138Z,51.80
2022-09-23T01:25:01.903Z,52.20
2022-09-23T01:27:59.652Z,52.10
2022-09-23T01:31:06.860Z,51.70
2022-09-23T01:33:53.228Z,52.60
2022-09-23T01:36:43.045Z,51.90
2022-09-23T01:39:35.170Z,52.20
2022-09-23T01:42:17.669Z,52.10
2022-09-23T01:44:56.379Z,51.90
2022-09-23T01:47:30.580Z,51.70
2022-09-23T01:50:03.186Z,51.50
2022-09-23T01:52:44.528Z,51.60
2022-09-23T01:55:22.514Z,51.50
2022-09-23T01:58:15.722Z,51.40
2022-09-23T02:01:09.136Z,52.00
2022-09-23T02:03:47.352Z,51.40
2022-09-23T02:06:23.284Z,51.50
2022-09-23T02:08:56.484Z,51.40
2022-09-23T02:11:23.896Z,51.20
2022-09-23T02:14:03.678Z,51.30
2022-09-23T02:16:47.596Z,51.40
2022-09-23T02:19:35.459Z,51.40
2022-09-23T02:22:37.034Z,51.80
2022-09-23T02:25:03.923Z,51.50
2022-09-23T02:27:50.193Z,51.70
2022-09-23T02:30:28.469Z,51.50
2022-09-23T02:33:20.583Z,51.40
2022-09-23T02:35:55.243Z,51.30
2022-09-23T02:38:43.876Z,51.40
2022-09-23T02:41:24.668Z,51.50
2022-09-23T02:44:12.727Z,51.40
2022-09-23T02:46:39.761Z,51.30
2022-09-23T02:49:12.588Z,51.50
2022-09-23T02:51:40.387Z,51.30
2022-09-23T02:54:10.646Z,51.50
2022-09-23T02:56:37.867Z,51.50
2022-09-23T02:59:05.761Z,51.50
2022-09-23T03:02:05.395Z,51.40
2022-09-23T03:04:50.799Z,51.70
2022-09-23T03:07:24.996Z,51.70
2022-09-23T03:10:03.370Z,51.60
2022-09-23T03:12:39.206Z,51.60
2022-09-23T03:15:18.419Z,51.70
2022-09-23T03:18:07.339Z,51.50
2022-09-23T03:20:38.286Z,51.70
2022-09-23T03:23:09.254Z,51.80
2022-09-23T03:25:39.699Z,51.50
2022-09-23T03:28:08.578Z,51.70
2022-09-23T03:30:36.723Z,51.80
2022-09-23T03:33:08.729Z,51.70
2022-09-23T03:35:59.285Z,51.80
2022-09-23T03:38:32.985Z,51.90
2022-09-23T03:41:04.174Z,52.00
2022-09-23T03:43:34.025Z,52.10
2022-09-23T03:46:03.459Z,52.10
2022-09-23T03:48:30.200Z,52.30
2022-09-23T03:50:56.980Z,52.40
2022-09-23T03:53:23.906Z,52.40
2022-09-23T03:55:50.548Z,52.50
2022-09-23T03:58:17.843Z,52.70
2022-09-23T04:00:45.163Z,52.60
2022-09-23T04:03:12.112Z,52.60
2022-09-23T04:05:38.910Z,52.30
2022-09-23T04:08:05.694Z,52.50
2022-09-23T04:10:32.419Z,52.80
2022-09-23T04:12:59.163Z,52.90
2022-09-23T04:15:25.977Z,52.70
2022-09-23T04:17:52.716Z,52.70
2022-09-23T04:20:20.580Z,52.50
2022-09-23T04:22:47.228Z,52.80
2022-09-23T04:25:13.961Z,52.80
2022-09-23T04:27:40.699Z,52.30
2022-09-23T04:30:07.994Z,52.70
2022-09-23T04:32:34.706Z,52.50
2022-09-23T04:35:01.347Z,52.50
2022-09-23T04:37:28.148Z,52.90
2022-09-23T04:39:55.747Z,52.80
2022-09-23T04:42:22.719Z,52.70
2022-09-23T04:44:49.437Z,52.90
2022-09-23T04:47:16.212Z,52.80
2022-09-23T04:49:42.877Z,52.70
2022-09-23T04:52:09.527Z,52.80
2022-09-23T04:54:36.860Z,52.70
2022-09-23T04:57:03.765Z,53.60
2022-09-23T04:59:30.503Z,53.40
2022-09-23T05:01:57.184Z,53.30
2022-09-23T05:04:23.852Z,53.60
2022-09-23T05:06:50.523Z,54.00
2022-09-23T05:09:17.801Z,54.40
2022-09-23T05:11:45.575Z,54.30
2022-09-23T05:14:13.029Z,54.20
2022-09-23T05:16:40.537Z,54.40
2022-09-23T05:19:07.430Z,53.30
2022-09-23T05:21:34.238Z,52.90
2022-09-23T05:24:01.343Z,53.20
2022-09-23T05:26:30.793Z,52.90
2022-09-23T05:28:58.469Z,52.40
2022-09-23T05:31:27.900Z,52.10
2022-09-23T05:34:03.470Z,51.90
2022-09-23T05:36:35.739Z,51.40
2022-09-23T05:39:05.699Z,51.70
2022-09-23T05:41:33.918Z,51.90
2022-09-23T05:44:01.102Z,52.10
2022-09-23T05:46:29.895Z,52.70
2022-09-23T05:49:06.754Z,53.10
2022-09-23T05:51:35.729Z,53.20
2022-09-23T05:54:04.068Z,53.10
2022-09-23T05:56:32.710Z,53.30
2022-09-23T05:59:01.433Z,53.40
2022-09-23T06:01:31.344Z,53.50
2022-09-23T06:03:59.183Z,53.70
2022-09-23T06:06:36.064Z,53.90
2022-09-23T06:09:03.296Z,54.10
2022-09-23T06:11:32.041Z,54.40
2022-09-23T06:14:02.349Z,54.60
2022-09-23T06:16:31.656Z,54.50
2022-09-23T06:19:05.063Z,54.50
2022-09-23T06:21:34.026Z,55.00
2022-09-23T06:24:00.971Z,54.90
2022-09-23T06:26:29.088Z,55.00
2022-09-23T06:28:55.746Z,54.70
2022-09-23T06:31:22.459Z,54.90
2022-09-23T06:33:50.554Z,55.00
2022-09-23T06:36:36.619Z,55.10
2022-09-23T06:39:30.097Z,55.10
2022-09-23T06:41:56.823Z,54.90
2022-09-23T06:44:23.739Z,55.30
2022-09-23T06:46:51.125Z,55.60
2022-09-23T06:49:18.226Z,55.70
2022-09-23T06:51:44.892Z,56.00
2022-09-23T06:54:11.689Z,56.10
2022-09-23T06:56:39.672Z,56.20
2022-09-23T06:59:09.607Z,56.30
2022-09-23T07:01:36.526Z,56.40
2022-09-23T07:04:03.652Z,56.70
2022-09-23T07:06:30.395Z,56.90
2022-09-23T07:08:57.103Z,57.10
2022-09-23T07:11:23.852Z,57.50
2022-09-23T07:13:50.630Z,57.50
2022-09-23T07:16:17.588Z,57.80
2022-09-23T07:18:45.117Z,58.00
2022-09-23T07:21:15.333Z,58.00
2022-09-23T07:23:43.484Z,58.70
2022-09-23T07:26:10.684Z,58.60
2022-09-23T07:28:39.742Z,58.50
2022-09-23T07:31:15.114Z,58.70
2022-09-23T07:33:45.906Z,58.40
2022-09-23T07:36:18.736Z,58.60
2022-09-23T07:38:46.597Z,58.90
2022-09-23T07:41:18.643Z,59.40
2022-09-23T07:43:47.632Z,59.50
2022-09-23T07:46:17.863Z,59.40
2022-09-23T07:48:45.972Z,59.50
2022-09-23T07:51:15.394Z,59.40
2022-09-23T07:53:42.116Z,59.60
2022-09-23T07:56:08.919Z,59.60
2022-09-23T07:58:35.713Z,59.70
2022-09-23T08:01:04.670Z,60.20
2022-09-23T08:03:31.491Z,60.00
2022-09-23T08:06:12.640Z,60.50
2022-09-23T08:08:43.402Z,59.80
2022-09-23T08:11:13.199Z,59.70
2022-09-23T08:13:40.681Z,60.20
2022-09-23T08:16:07.688Z,60.10
2022-09-23T08:18:34.630Z,60.30
2022-09-23T08:21:01.503Z,60.30
2022-09-23T08:23:33.279Z,60.70
2022-09-23T08:26:02.444Z,60.80
2022-09-23T08:28:29.279Z,61.30
2022-09-23T08:30:57.089Z,60.50
2022-09-23T08:33:24.444Z,60.20
2022-09-23T08:35:52.334Z,60.20
2022-09-23T08:38:20.354Z,60.00
2022-09-23T08:40:49.477Z,60.40
2022-09-23T08:43:28.195Z,60.30
2022-09-23T08:45:56.975Z,60.70
2022-09-23T08:48:30.514Z,60.30
2022-09-23T08:51:08.294Z,60.30
2022-09-23T08:53:38.265Z,59.90
2022-09-23T08:56:17.888Z,61.10
2022-09-23T08:59:21.134Z,60.20
2022-09-23T09:01:51.484Z,60.00
2022-09-23T09:04:32.955Z,60.30
2022-09-23T09:07:38.814Z,60.30
2022-09-23T09:10:18.181Z,61.00
2022-09-23T09:12:49.925Z,61.60
2022-09-23T09:15:21.106Z,61.00
2022-09-23T09:17:53.827Z,59.50
2022-09-23T09:20:20.599Z,59.60
2022-09-23T09:23:02.662Z,60.00
2022-09-23T09:25:46.028Z,61.40
2022-09-23T09:28:36.409Z,61.40
2022-09-23T09:31:22.462Z,60.10
2022-09-23T09:34:20.257Z,60.10
2022-09-23T09:37:06.167Z,59.60
2022-09-23T09:39:35.334Z,59.90
2022-09-23T09:42:03.382Z,60.40
2022-09-23T09:44:49.752Z,59.90
2022-09-23T09:47:47.302Z,59.10
2022-09-23T09:50:39.485Z,59.40
2022-09-23T09:53:36.338Z,59.90
2022-09-23T09:56:12.962Z,60.50
2022-09-23T09:58:50.410Z,60.50
2022-09-23T10:01:31.876Z,60.20
2022-09-23T10:04:01.484Z,60.00
2022-09-23T10:06:32.548Z,60.60
2022-09-23T10:09:18.898Z,60.70
2022-09-23T10:12:15.802Z,60.50
2022-09-23T10:14:43.284Z,60.30
2022-09-23T10:17:19.216Z,60.00
2022-09-23T10:19:49.781Z,59.50
2022-09-23T10:22:26.318Z,58.80
2022-09-23T10:25:03.652Z,59.30
2022-09-23T10:27:33.815Z,59.20
2022-09-23T10:30:04.706Z,59.30
2022-09-23T10:32:32.726Z,59.80
2022-09-23T10:35:09.017Z,59.40
2022-09-23T10:37:44.182Z,59.00
2022-09-23T10:40:44.396Z,58.70
2022-09-23T10:43:56.097Z,59.20
2022-09-23T10:46:38.325Z,59.10
2022-09-23T10:49:31.603Z,58.20
2022-09-23T10:52:32.547Z,59.00
2022-09-23T10:55:32.897Z,59.60
2022-09-23T10:58:28.739Z,58.40
2022-09-23T11:01:31.035Z,58.40
2022-09-23T11:04:44.715Z,58.80
2022-09-23T11:07:39.113Z,58.60
2022-09-23T11:10:18.431Z,59.40
2022-09-23T11:13:04.177Z,58.80
2022-09-23T11:15:36.523Z,59.60
2022-09-23T11:18:30.284Z,59.90
2022-09-23T11:21:09.003Z,58.70
2022-09-23T11:24:29.309Z,59.50
2022-09-23T11:27:04.970Z,59.00
2022-09-23T11:29:56.430Z,58.30
2022-09-23T11:32:53.757Z,58.90
2022-09-23T11:35:28.253Z,59.30
2022-09-23T11:38:05.794Z,59.20
2022-09-23T11:40:36.398Z,58.50
2022-09-23T11:43:23.555Z,59.10
2022-09-23T11:46:01.171Z,59.40
2022-09-23T11:48:31.117Z,59.20
2022-09-23T11:51:12.210Z,60.00
2022-09-23T11:54:06.239Z,59.10
2022-09-23T11:56:47.269Z,59.00
2022-09-23T12:02:36.528Z,57.90
2022-09-23T12:05:12.919Z,57.90
2022-09-23T12:07:56.677Z,58.20
2022-09-23T12:10:45.839Z,57.40
2022-09-23T12:13:19.385Z,57.20
2022-09-23T12:15:57.734Z,57.70
2022-09-23T12:18:53.957Z,57.60
2022-09-23T12:21:49.138Z,58.60
2022-09-23T12:24:43.274Z,58.50
2022-09-23T12:27:24.996Z,58.60
2022-09-23T12:30:00.797Z,57.90
2022-09-23T12:32:28.548Z,58.30
2022-09-23T12:34:56.275Z,58.20
2022-09-23T12:37:29.117Z,58.90
2022-09-23T12:40:02.034Z,59.80
2022-09-23T12:42:31.227Z,59.60
2022-09-23T12:45:19.309Z,59.90
2022-09-23T12:47:46.245Z,58.40
2022-09-23T12:51:00.160Z,58.20
2022-09-23T12:53:36.075Z,58.30
2022-09-23T12:56:19.352Z,58.60
2022-09-23T12:58:50.884Z,58.00
2022-09-23T13:01:20.921Z,56.80
2022-09-23T13:04:09.576Z,56.70
2022-09-23T13:06:46.703Z,56.80
2022-09-23T13:09:42.666Z,56.90
2022-09-23T13:12:25.586Z,57.00
2022-09-23T13:14:55.659Z,57.30
2022-09-23T13:17:34.279Z,57.00
2022-09-23T13:20:03.429Z,56.10
2022-09-23T13:23:02.124Z,56.40
2022-09-23T13:25:34.632Z,56.50
2022-09-23T13:28:02.660Z,55.80
2022-09-23T13:30:29.362Z,56.00
2022-09-23T13:33:16.811Z,56.40
2022-09-23T13:35:51.295Z,57.20
2022-09-23T13:38:26.081Z,56.70
2022-09-23T13:40:57.742Z,56.80
2022-09-23T13:43:29.383Z,56.20
2022-09-23T13:45:56.085Z,55.80
2022-09-23T13:48:25.392Z,57.10
2022-09-23T13:50:53.480Z,57.30
2022-09-23T13:53:30.060Z,57.30
2022-09-23T13:56:13.567Z,58.80
2022-09-23T13:58:40.548Z,57.90
2022-09-23T14:01:38.645Z,58.60
2022-09-23T14:04:05.394Z,58.50
2022-09-23T14:06:39.107Z,58.00
2022-09-23T14:09:06.544Z,58.10
2022-09-23T14:11:35.428Z,58.60
2022-09-23T14:14:07.633Z,58.50
2022-09-23T14:16:38.236Z,58.70
2022-09-23T14:19:06.719Z,58.80
2022-09-23T14:21:36.168Z,59.30
2022-09-23T14:24:23.417Z,59.20
2022-09-23T14:26:54.471Z,59.40
2022-09-23T14:29:29.332Z,59.50
2022-09-23T14:32:03.593Z,59.80
2022-09-23T14:35:05.391Z,59.60
2022-09-23T14:37:56.799Z,60.10
2022-09-23T14:40:28.820Z,60.00
2022-09-23T14:43:00.177Z,59.50
2022-09-23T14:45:32.558Z,60.40
2022-09-23T14:48:05.879Z,60.80
2022-09-23T14:50:48.524Z,60.10
2022-09-23T14:53:24.305Z,59.80
2022-09-23T14:55:57.434Z,60.00
2022-09-23T14:58:28.637Z,60.00
2022-09-23T15:01:00.513Z,61.10
2022-09-23T15:03:28.761Z,60.60
2022-09-23T15:06:08.534Z,61.20
2022-09-23T15:08:36.393Z,60.70
2022-09-23T15:11:07.899Z,60.70
2022-09-23T15:13:39.889Z,60.90
2022-09-23T15:16:07.324Z,61.40
2022-09-23T15:18:37.257Z,61.30
2022-09-23T15:21:18.433Z,61.00
2022-09-23T15:23:48.321Z,62.10
2022-09-23T15:26:20.143Z,62.30
2022-09-23T15:28:48.035Z,61.30
2022-09-23T15:31:20.003Z,61.50
2022-09-23T15:33:50.683Z,61.50
2022-09-23T15:36:28.273Z,61.80
2022-09-23T15:39:08.651Z,61.70
2022-09-23T15:41:35.397Z,62.80
2022-09-23T15:44:28.589Z,62.50
2022-09-23T15:46:59.985Z,62.20
2022-09-23T15:49:36.476Z,63.20
2022-09-23T15:52:05.343Z,64.30
2022-09-23T15:54:32.625Z,64.60
2022-09-23T15:57:01.096Z,64.20
2022-09-23T15:59:28.919Z,64.10
2022-09-23T16:01:56.752Z,64.80
2022-09-23T16:04:23.735Z,65.40
2022-09-23T16:06:50.431Z,65.60
2022-09-23T16:09:17.083Z,66.10
2022-09-23T16:11:46.304Z,66.60
2022-09-23T16:14:17.694Z,67.00
2022-09-23T16:16:47.674Z,67.20
2022-09-23T16:19:16.200Z,67.50
2022-09-23T16:21:43.971Z,67.70
2022-09-23T16:24:17.846Z,68.00
2022-09-23T16:26:46.564Z,68.20
2022-09-23T16:29:13.228Z,68.40
2022-09-23T16:31:40.006Z,68.70
2022-09-23T16:34:07.004Z,69.10
2022-09-23T16:36:39.524Z,69.30
2022-09-23T16:39:09.496Z,70.30
2022-09-23T16:41:37.275Z,69.50
2022-09-23T16:44:07.306Z,69.60
2022-09-23T16:46:34.867Z,69.50
2022-09-23T16:49:01.800Z,70.00
2022-09-23T16:51:30.830Z,70.00
2022-09-23T16:53:59.353Z,70.50
2022-09-23T16:56:28.945Z,70.70
2022-09-23T16:58:56.623Z,69.70
2022-09-23T17:01:47.596Z,70.30
2022-09-23T17:04:16.016Z,70.70
2022-09-23T17:06:44.285Z,70.80
2022-09-23T17:09:11.755Z,70.80
2022-09-23T17:11:38.453Z,71.00
2022-09-23T17:14:05.629Z,71.10
2022-09-23T17:16:34.406Z,70.90
2022-09-23T17:19:11.147Z,70.80
2022-09-23T17:21:38.192Z,70.70
2022-09-23T17:24:05.321Z,70.30
2022-09-23T17:26:32.456Z,70.30
2022-09-23T17:29:01.527Z,70.60
2022-09-23T17:31:28.427Z,70.60
2022-09-23T17:33:55.352Z,70.60
2022-09-23T17:36:22.188Z,70.60
2022-09-23T17:38:53.379Z,70.70
2022-09-23T17:41:20.843Z,70.80
2022-09-23T17:43:48.068Z,70.80
2022-09-23T17:46:18.618Z,70.90
2022-09-23T17:48:46.205Z,70.90
2022-09-23T17:51:15.786Z,71.50
2022-09-23T17:53:45.334Z,70.90
2022-09-23T17:56:22.935Z,70.90
2022-09-23T17:58:50.087Z,71.20
2022-09-23T18:01:19.988Z,70.90
2022-09-23T18:03:47.384Z,70.90
2022-09-23T18:06:21.873Z,70.90
2022-09-23T18:08:50.137Z,70.90
2022-09-23T18:11:26.959Z,70.80
2022-09-23T18:13:54.746Z,70.80
2022-09-23T18:16:24.196Z,70.60
2022-09-23T18:18:56.172Z,70.60
2022-09-23T18:21:25.036Z,70.60
2022-09-23T18:23:51.908Z,70.80
2022-09-23T18:26:20.799Z,70.80
2022-09-23T18:28:48.081Z,70.90
2022-09-23T18:31:15.778Z,71.00
2022-09-23T18:33:42.590Z,71.00
2022-09-23T18:36:09.886Z,71.00
2022-09-23T18:38:36.553Z,71.10
2022-09-23T18:41:03.370Z,71.10
2022-09-23T18:43:37.543Z,71.10
2022-09-23T18:46:11.421Z,71.10
2022-09-23T18:48:56.595Z,71.20
2022-09-23T18:51:25.751Z,71.80
2022-09-23T18:53:57.558Z,71.10
2022-09-23T18:56:37.082Z,71.20
2022-09-23T18:59:07.460Z,71.30
2022-09-23T19:01:35.090Z,71.20
2022-09-23T19:04:02.287Z,71.40
2022-09-23T19:06:31.385Z,71.40
2022-09-23T19:08:58.133Z,71.40
2022-09-23T19:11:25.497Z,71.40
2022-09-23T19:13:57.559Z,71.40
2022-09-23T19:16:26.053Z,71.50
2022-09-23T19:18:53.236Z,71.50
2022-09-23T19:21:22.063Z,71.00
2022-09-23T19:23:51.118Z,71.30
2022-09-23T19:26:20.577Z,71.30
2022-09-23T19:28:50.204Z,71.30
2022-09-23T19:31:22.980Z,71.30
2022-09-23T19:34:14.264Z,71.20
2022-09-23T19:36:43.272Z,71.20
2022-09-23T19:39:23.321Z,71.20
2022-09-23T19:41:52.272Z,71.30
2022-09-23T19:44:20.071Z,71.20
2022-09-23T19:46:53.506Z,71.10
2022-09-23T19:49:24.415Z,71.00
2022-09-23T19:51:51.889Z,71.00
2022-09-23T19:54:21.616Z,70.90
2022-09-23T19:56:49.924Z,70.90
2022-09-23T19:59:19.587Z,70.80
2022-09-23T20:01:48.066Z,70.90
2022-09-23T20:04:15.916Z,70.90
2022-09-23T20:06:42.951Z,70.60
2022-09-23T20:09:09.951Z,70.80
2022-09-23T20:11:36.747Z,71.00
2022-09-23T20:14:05.830Z,71.10
2022-09-23T20:16:35.099Z,71.30
2022-09-23T20:19:04.074Z,71.00
2022-09-23T20:21:31.348Z,71.00
2022-09-23T20:23:58.167Z,71.10
2022-09-23T20:26:44.184Z,71.10
2022-09-23T20:29:11.475Z,70.90
2022-09-23T20:31:40.348Z,70.90
2022-09-23T20:34:08.145Z,70.80
2022-09-23T20:36:35.956Z,70.70
2022-09-23T20:39:05.964Z,70.60
2022-09-23T20:41:37.773Z,70.50
2022-09-23T20:44:07.546Z,70.50
2022-09-23T20:46:34.844Z,70.50
2022-09-23T20:49:02.190Z,70.40
2022-09-23T20:51:29.410Z,70.30
2022-09-23T20:53:56.231Z,70.30
2022-09-23T20:56:23.600Z,70.20
2022-09-23T20:58:52.488Z,70.30
2022-09-23T21:01:19.806Z,70.10
2022-09-23T21:03:49.205Z,70.30
2022-09-23T21:06:18.925Z,70.30
2022-09-23T21:08:46.366Z,70.00
2022-09-23T21:11:15.418Z,69.90
2022-09-23T21:13:47.143Z,69.90
2022-09-23T21:16:17.862Z,69.90
2022-09-23T21:18:45.729Z,70.00
2022-09-23T21:21:14.341Z,69.90
2022-09-23T21:23:41.849Z,69.70
2022-09-23T21:26:11.422Z,69.20
2022-09-23T21:28:43.018Z,69.60
2022-09-23T21:31:22.724Z,69.70
2022-09-23T21:34:00.950Z,69.80
2022-09-23T21:36:38.781Z,69.80
2022-09-23T21:39:06.670Z,69.80
2022-09-23T21:41:33.826Z,69.70
2022-09-23T21:44:04.509Z,69.60
2022-09-23T21:46:33.878Z,69.60
2022-09-23T21:49:03.903Z,69.60
2022-09-23T21:51:37.727Z,69.60
2022-09-23T21:54:06.244Z,69.60
2022-09-23T21:56:35.267Z,69.50
2022-09-23T21:59:02.470Z,68.50
2022-09-23T22:01:34.685Z,69.10
2022-09-23T22:04:07.884Z,69.40
2022-09-23T22:06:38.112Z,69.40
2022-09-23T22:09:08.900Z,69.40
2022-09-23T22:11:55.802Z,69.40
2022-09-23T22:14:25.926Z,69.40
2022-09-23T22:16:59.133Z,69.20
2022-09-23T22:19:28.304Z,69.50
2022-09-23T22:21:56.178Z,69.10
2022-09-23T22:24:23.284Z,69.20
2022-09-23T22:26:50.242Z,69.20
2022-09-23T22:29:36.313Z,69.30
2022-09-23T22:32:23.296Z,69.10
2022-09-23T22:34:51.928Z,69.10
2022-09-23T22:37:21.763Z,69.10
2022-09-23T22:39:48.711Z,69.10
2022-09-23T22:42:15.512Z,69.20
2022-09-23T22:44:42.303Z,69.20
2022-09-23T22:47:10.071Z,69.10
2022-09-23T22:49:37.053Z,69.10
2022-09-23T22:52:06.998Z,69.10
2022-09-23T22:54:34.555Z,69.10
2022-09-23T22:57:05.317Z,68.90
2022-09-23T22:59:32.033Z,68.80
2022-09-23T23:02:02.816Z,68.80
2022-09-23T23:04:30.229Z,68.90
2022-09-23T23:06:58.890Z,68.80
2022-09-23T23:09:26.194Z,68.80
2022-09-23T23:11:53.196Z,68.70
2022-09-23T23:14:20.198Z,68.80
2022-09-23T23:16:47.235Z,69.30
2022-09-23T23:19:17.127Z,68.80
2022-09-23T23:21:45.146Z,68.80
2022-09-23T23:24:22.373Z,68.70
2022-09-23T23:26:49.674Z,68.60
2022-09-23T23:29:18.168Z,68.50
2022-09-23T23:31:45.271Z,68.50
2022-09-23T23:34:14.096Z,68.50
2022-09-23T23:36:41.419Z,68.60
2022-09-23T23:39:08.439Z,68.70
2022-09-23T23:41:35.602Z,68.70
2022-09-23T23:44:02.772Z,68.80
2022-09-23T23:46:31.566Z,68.70
2022-09-23T23:48:59.239Z,68.90
2022-09-23T23:51:26.790Z,68.80
2022-09-23T23:53:54.423Z,68.80
2022-09-23T23:56:23.001Z,68.80
2022-09-23T23:58:53.803Z,68.80
